createdAt,value
2019-01-25T00:00:57.164Z,196.57
2019-01-25T00:02:01.180Z,158.35
2019-01-25T00:03:10.321Z,203.37
2019-01-25T00:04:12.962Z,151.80
2019-01-25T00:05:17.223Z,146.22
2019-01-25T00:06:21.261Z,161.95
2019-01-25T00:07:25.565Z,174.60
2019-01-25T00:08:29.582Z,168.70
2019-01-25T00:09:33.595Z,153.57
2019-01-25T00:10:37.691Z,134.43
2019-01-25T00:11:42.092Z,142.47
2019-01-25T00:12:46.115Z,137.85
2019-01-25T00:13:50.126Z,138.88
2019-01-25T00:14:54.179Z,138.52
2019-01-25T00:15:58.201Z,142.35
2019-01-25T00:17:02.248Z,141.00
2019-01-25T00:18:06.797Z,146.95
2019-01-25T00:19:10.748Z,141.90
2019-01-25T00:20:14.881Z,150.82
2019-01-25T00:21:19.216Z,144.68
2019-01-25T00:22:23.162Z,140.82
2019-01-25T00:23:27.184Z,139.68
2019-01-25T00:24:31.525Z,136.97
2019-01-25T00:25:35.544Z,144.93
2019-01-25T00:26:39.833Z,141.25
2019-01-25T00:27:43.858Z,140.60
2019-01-25T00:28:47.829Z,138.52
2019-01-25T00:29:51.950Z,131.10
2019-01-25T00:30:55.968Z,126.25
2019-01-25T00:32:00.000Z,132.45
2019-01-25T00:33:04.358Z,140.22
2019-01-25T00:34:08.237Z,139.47
2019-01-25T00:35:12.454Z,137.88
2019-01-25T00:36:16.490Z,136.77
2019-01-25T00:37:20.566Z,138.90
2019-01-25T00:38:24.681Z,144.45
2019-01-25T00:39:28.686Z,140.85
2019-01-25T00:40:32.786Z,143.25
2019-01-25T00:41:36.801Z,145.02
2019-01-25T00:42:40.926Z,143.15
2019-01-25T00:43:44.869Z,144.62
2019-01-25T00:44:48.863Z,141.00
2019-01-25T00:45:52.882Z,147.37
2019-01-25T00:46:56.895Z,143.87
2019-01-25T00:48:00.918Z,152.35
2019-01-25T00:49:05.748Z,148.07
2019-01-25T00:50:15.844Z,149.97
2019-01-25T00:51:19.788Z,150.78
2019-01-25T00:52:24.154Z,153.20
2019-01-25T00:53:28.406Z,145.55
2019-01-25T00:54:32.655Z,136.88
2019-01-25T00:55:36.736Z,142.25
2019-01-25T00:56:40.754Z,144.97
2019-01-25T00:57:44.814Z,147.87
2019-01-25T00:58:49.049Z,142.25
2019-01-25T00:59:53.064Z,143.10
2019-01-25T01:00:57.066Z,153.53
2019-01-25T01:02:01.069Z,141.57
2019-01-25T01:03:07.213Z,143.32
2019-01-25T01:04:11.221Z,139.60
2019-01-25T01:05:15.581Z,133.32
2019-01-25T01:06:19.836Z,136.65
2019-01-25T01:07:23.847Z,134.80
2019-01-25T01:08:27.874Z,136.68
2019-01-25T01:09:31.888Z,125.42
2019-01-25T01:10:35.891Z,128.02
2019-01-25T01:11:39.890Z,127.72
2019-01-25T01:12:43.899Z,132.45
2019-01-25T01:13:47.848Z,124.05
2019-01-25T01:14:51.855Z,130.37
2019-01-25T01:15:55.871Z,134.52
2019-01-25T01:16:59.804Z,137.37
2019-01-25T01:18:03.918Z,133.25
2019-01-25T01:19:08.046Z,137.68
2019-01-25T01:20:13.988Z,130.63
2019-01-25T01:21:18.237Z,127.72
2019-01-25T01:22:22.337Z,131.35
2019-01-25T01:23:26.355Z,123.67
2019-01-25T01:24:30.385Z,132.45
2019-01-25T01:25:34.609Z,132.15
2019-01-25T01:26:38.624Z,125.40
2019-01-25T01:27:42.761Z,135.65
2019-01-25T01:28:46.717Z,118.37
2019-01-25T01:29:50.777Z,130.45
2019-01-25T01:30:55.161Z,131.85
2019-01-25T01:31:59.166Z,135.00
2019-01-25T01:33:03.170Z,135.93
2019-01-25T01:34:07.182Z,129.27
2019-01-25T01:35:11.191Z,134.15
2019-01-25T01:36:15.191Z,130.43
2019-01-25T01:37:19.206Z,122.72
2019-01-25T01:38:23.485Z,119.17
2019-01-25T01:39:27.510Z,116.67
2019-01-25T01:40:31.780Z,113.47
2019-01-25T01:41:35.790Z,125.45
2019-01-25T01:42:39.801Z,118.82
2019-01-25T01:43:43.900Z,111.68
2019-01-25T01:44:47.951Z,114.47
2019-01-25T01:45:51.998Z,116.53
2019-01-25T01:46:56.022Z,116.90
2019-01-25T01:48:00.330Z,115.90
2019-01-25T01:49:04.627Z,112.88
2019-01-25T01:50:10.580Z,112.60
2019-01-25T01:51:14.950Z,115.03
2019-01-25T01:52:19.270Z,114.77
2019-01-25T01:53:23.285Z,113.55
2019-01-25T01:54:27.677Z,105.32
2019-01-25T01:55:31.695Z,112.32
2019-01-25T01:56:35.687Z,97.57
2019-01-25T01:57:39.771Z,113.42
2019-01-25T01:58:43.783Z,107.85
2019-01-25T01:59:47.894Z,107.80
2019-01-25T02:00:51.911Z,107.87
2019-01-25T02:01:55.906Z,102.70
2019-01-25T02:03:00.111Z,104.50
2019-01-25T02:04:04.592Z,105.92
2019-01-25T02:05:09.208Z,106.92
2019-01-25T02:06:13.293Z,107.85
2019-01-25T02:07:17.345Z,103.75
2019-01-25T02:08:21.365Z,108.80
2019-01-25T02:09:25.390Z,106.83
2019-01-25T02:10:29.882Z,100.50
2019-01-25T02:11:33.925Z,103.62
2019-01-25T02:12:38.266Z,107.05
2019-01-25T02:13:42.214Z,103.67
2019-01-25T02:14:46.232Z,103.40
2019-01-25T02:15:50.258Z,100.87
2019-01-25T02:16:54.270Z,105.10
2019-01-25T02:17:58.278Z,102.45
2019-01-25T02:19:02.337Z,110.88
2019-01-25T02:20:07.809Z,106.87
2019-01-25T02:21:12.835Z,108.42
2019-01-25T02:22:16.853Z,112.70
2019-01-25T02:23:20.869Z,112.72
2019-01-25T02:24:24.816Z,117.93
2019-01-25T02:25:28.837Z,117.35
2019-01-25T02:26:32.902Z,115.50
2019-01-25T02:27:36.934Z,107.35
2019-01-25T02:28:41.287Z,107.70
2019-01-25T02:29:45.242Z,110.90
2019-01-25T02:30:49.277Z,101.45
2019-01-25T02:31:53.536Z,112.75
2019-01-25T02:32:57.624Z,104.78
2019-01-25T02:34:01.643Z,111.57
2019-01-25T02:35:06.177Z,106.17
2019-01-25T02:36:10.571Z,108.30
2019-01-25T02:37:14.595Z,114.05
2019-01-25T02:38:18.616Z,106.70
2019-01-25T02:39:22.553Z,91.12
2019-01-25T02:40:26.803Z,93.20
2019-01-25T02:41:30.895Z,97.95
2019-01-25T02:42:34.909Z,90.07
2019-01-25T02:43:38.922Z,84.22
2019-01-25T02:44:42.903Z,89.83
2019-01-25T02:45:46.903Z,90.00
2019-01-25T02:46:50.911Z,93.12
2019-01-25T02:47:55.160Z,97.15
2019-01-25T02:48:59.055Z,97.27
2019-01-25T02:50:03.071Z,94.32
2019-01-25T02:51:07.305Z,98.42
2019-01-25T02:52:11.335Z,89.52
2019-01-25T02:53:15.354Z,101.45
2019-01-25T02:54:19.942Z,90.10
2019-01-25T02:55:24.005Z,96.70
2019-01-25T02:56:28.038Z,96.70
2019-01-25T02:57:32.060Z,92.45
2019-01-25T02:58:36.104Z,95.60
2019-01-25T02:59:40.044Z,96.67
2019-01-25T03:00:44.104Z,96.20
2019-01-25T03:01:48.432Z,98.00
2019-01-25T03:02:53.033Z,93.72
2019-01-25T03:03:57.073Z,91.45
2019-01-25T03:05:01.077Z,91.90
2019-01-25T03:06:05.093Z,91.63
2019-01-25T03:07:09.107Z,88.12
2019-01-25T03:08:13.038Z,92.88
2019-01-25T03:09:17.042Z,85.57
2019-01-25T03:10:28.242Z,83.33
2019-01-25T03:11:27.133Z,82.65
2019-01-25T03:12:31.403Z,89.70
2019-01-25T03:13:35.411Z,82.25
2019-01-25T03:14:39.420Z,79.77
2019-01-25T03:15:43.425Z,87.25
2019-01-25T03:16:47.428Z,85.50
2019-01-25T03:17:51.451Z,87.30
2019-01-25T03:18:55.560Z,79.95
2019-01-25T03:19:59.493Z,75.37
2019-01-25T03:21:05.022Z,74.53
2019-01-25T03:22:09.074Z,79.65
2019-01-25T03:23:13.102Z,84.10
2019-01-25T03:24:17.110Z,86.30
2019-01-25T03:25:23.443Z,87.85
2019-01-25T03:26:27.441Z,83.40
2019-01-25T03:27:31.478Z,86.75
2019-01-25T03:28:35.495Z,79.32
2019-01-25T03:29:39.737Z,84.58
2019-01-25T03:30:44.040Z,82.85
2019-01-25T03:31:48.059Z,83.75
2019-01-25T03:32:52.083Z,87.62
2019-01-25T03:33:56.339Z,90.90
2019-01-25T03:35:00.437Z,90.72
2019-01-25T03:36:04.392Z,91.75
2019-01-25T03:37:08.458Z,89.55
2019-01-25T03:38:12.453Z,103.58
2019-01-25T03:39:16.401Z,123.97
2019-01-25T03:40:23.067Z,114.17
2019-01-25T03:41:27.088Z,118.80
2019-01-25T03:42:30.961Z,114.08
2019-01-25T03:43:34.921Z,122.35
2019-01-25T03:44:38.932Z,116.62
2019-01-25T03:45:43.320Z,120.40
2019-01-25T03:46:47.280Z,128.90
2019-01-25T03:47:51.304Z,122.17
2019-01-25T03:48:55.348Z,115.50
2019-01-25T03:49:59.958Z,123.67
2019-01-25T03:51:03.927Z,110.95
2019-01-25T03:52:08.064Z,118.65
2019-01-25T03:53:12.028Z,125.02
2019-01-25T03:54:16.054Z,119.20
2019-01-25T03:55:20.073Z,119.10
2019-01-25T03:56:24.084Z,125.38
2019-01-25T03:57:28.100Z,125.62
2019-01-25T03:58:32.502Z,118.05
2019-01-25T03:59:36.870Z,112.22
2019-01-25T04:00:40.889Z,120.92
2019-01-25T04:01:45.181Z,113.92
2019-01-25T04:02:49.464Z,118.53
2019-01-25T04:03:53.493Z,115.80
2019-01-25T04:04:57.506Z,118.00
2019-01-25T04:06:01.562Z,117.00
2019-01-25T04:07:05.962Z,120.95
2019-01-25T04:08:10.228Z,126.70
2019-01-25T04:09:14.516Z,108.63
2019-01-25T04:10:20.717Z,117.13
2019-01-25T04:11:24.767Z,115.97
2019-01-25T04:12:28.846Z,118.80
2019-01-25T04:13:33.184Z,119.47
2019-01-25T04:14:37.204Z,122.82
2019-01-25T04:15:41.223Z,121.50
2019-01-25T04:16:45.351Z,119.50
2019-01-25T04:17:49.458Z,125.38
2019-01-25T04:18:53.500Z,125.70
2019-01-25T04:19:57.520Z,120.33
2019-01-25T04:21:01.573Z,114.57
2019-01-25T04:22:06.097Z,126.90
2019-01-25T04:23:10.110Z,121.10
2019-01-25T04:24:14.146Z,116.60
2019-01-25T04:25:20.179Z,116.28
2019-01-25T04:26:24.193Z,117.75
2019-01-25T04:27:28.219Z,114.22
2019-01-25T04:28:32.245Z,115.80
2019-01-25T04:29:36.205Z,112.30
2019-01-25T04:30:40.218Z,106.37
2019-01-25T04:31:44.171Z,103.78
2019-01-25T04:32:48.352Z,105.52
2019-01-25T04:33:52.580Z,115.77
2019-01-25T04:34:56.530Z,108.85
2019-01-25T04:36:00.556Z,111.03
2019-01-25T04:37:04.891Z,110.28
2019-01-25T04:38:08.917Z,102.95
2019-01-25T04:39:12.989Z,104.40
2019-01-25T04:40:17.225Z,102.95
2019-01-25T04:41:21.187Z,106.70
2019-01-25T04:42:25.198Z,97.02
2019-01-25T04:43:29.196Z,103.60
2019-01-25T04:44:33.214Z,107.80
2019-01-25T04:45:37.384Z,97.47
2019-01-25T04:46:41.717Z,105.27
2019-01-25T04:47:45.836Z,90.57
2019-01-25T04:48:49.839Z,91.35
2019-01-25T04:49:53.846Z,88.37
2019-01-25T04:50:57.786Z,87.67
2019-01-25T04:52:01.693Z,82.22
2019-01-25T04:53:05.963Z,85.05
2019-01-25T04:54:09.970Z,86.15
2019-01-25T04:55:25.379Z,84.20
2019-01-25T04:56:32.235Z,82.22
2019-01-25T04:57:36.173Z,79.65
2019-01-25T04:58:40.420Z,87.82
2019-01-25T04:59:44.428Z,82.35
2019-01-25T05:00:48.498Z,115.50
2019-01-25T05:01:52.507Z,115.77
2019-01-25T05:02:58.436Z,100.30
2019-01-25T05:04:02.551Z,108.97
2019-01-25T05:05:07.474Z,114.17
2019-01-25T05:06:14.655Z,103.87
2019-01-25T05:07:18.654Z,107.00
2019-01-25T05:08:23.122Z,104.35
2019-01-25T05:09:27.128Z,108.67
2019-01-25T05:10:31.183Z,104.50
2019-01-25T05:11:35.187Z,101.95
2019-01-25T05:12:39.452Z,110.63
2019-01-25T05:13:43.495Z,107.40
2019-01-25T05:14:47.571Z,110.35
2019-01-25T05:15:51.597Z,107.20
2019-01-25T05:16:55.919Z,103.75
2019-01-25T05:17:59.944Z,109.65
2019-01-25T05:19:04.377Z,108.40
2019-01-25T05:20:08.843Z,110.85
2019-01-25T05:21:21.167Z,111.62
2019-01-25T05:22:25.495Z,108.70
2019-01-25T05:23:29.577Z,101.00
2019-01-25T05:24:33.806Z,102.20
2019-01-25T05:25:37.825Z,105.65
2019-01-25T05:26:41.944Z,107.90
2019-01-25T05:27:45.905Z,112.40
2019-01-25T05:28:50.004Z,104.58
2019-01-25T05:29:55.816Z,95.77
2019-01-25T05:31:05.316Z,111.03
2019-01-25T05:32:09.327Z,103.02
2019-01-25T05:33:13.270Z,102.45
2019-01-25T05:34:17.135Z,105.47
2019-01-25T05:35:21.437Z,101.33
2019-01-25T05:36:25.464Z,105.05
2019-01-25T05:37:29.490Z,110.17
2019-01-25T05:38:33.521Z,116.82
2019-01-25T05:39:37.464Z,116.10
2019-01-25T05:40:41.491Z,110.37
2019-01-25T05:41:50.140Z,108.47
2019-01-25T05:42:54.716Z,104.35
2019-01-25T05:43:59.024Z,103.10
2019-01-25T05:45:09.705Z,105.70
2019-01-25T05:46:13.665Z,96.42
2019-01-25T05:47:17.678Z,92.88
2019-01-25T05:48:29.056Z,101.95
2019-01-25T05:49:33.061Z,94.92
2019-01-25T05:50:37.134Z,92.70
2019-01-25T05:51:41.169Z,105.07
2019-01-25T05:52:45.288Z,96.28
2019-01-25T05:53:53.281Z,99.60
2019-01-25T05:54:57.309Z,104.83
2019-01-25T05:56:01.276Z,95.20
2019-01-25T05:57:05.673Z,100.18
2019-01-25T05:58:10.898Z,98.90
2019-01-25T05:59:16.456Z,97.15
2019-01-25T06:00:26.095Z,96.45
2019-01-25T06:01:30.439Z,96.42
2019-01-25T06:02:34.789Z,98.07
2019-01-25T06:03:39.059Z,91.60
2019-01-25T06:04:43.403Z,100.82
2019-01-25T06:05:47.712Z,90.83
2019-01-25T06:06:52.021Z,94.72
2019-01-25T06:07:55.959Z,96.22
2019-01-25T06:08:59.973Z,94.97
2019-01-25T06:10:04.525Z,95.50
2019-01-25T06:11:12.148Z,88.37
2019-01-25T06:12:16.343Z,97.17
2019-01-25T06:13:20.289Z,90.28
2019-01-25T06:14:24.304Z,87.10
2019-01-25T06:15:30.624Z,86.15
2019-01-25T06:16:35.196Z,89.15
2019-01-25T06:17:39.408Z,90.55
2019-01-25T06:18:43.711Z,89.83
2019-01-25T06:19:47.782Z,89.40
2019-01-25T06:20:55.626Z,88.00
2019-01-25T06:21:59.665Z,89.07
2019-01-25T06:23:03.684Z,90.72
2019-01-25T06:24:07.700Z,94.58
2019-01-25T06:25:12.076Z,91.35
2019-01-25T06:26:16.092Z,97.55
2019-01-25T06:27:20.469Z,91.75
2019-01-25T06:28:24.614Z,87.90
2019-01-25T06:29:33.505Z,98.50
2019-01-25T06:30:37.750Z,89.67
2019-01-25T06:31:41.768Z,90.70
2019-01-25T06:32:46.022Z,100.85
2019-01-25T06:33:50.041Z,83.27
2019-01-25T06:34:54.040Z,89.70
2019-01-25T06:35:58.050Z,85.57
2019-01-25T06:37:02.294Z,86.63
2019-01-25T06:38:06.312Z,85.53
2019-01-25T06:39:10.628Z,90.30
2019-01-25T06:40:14.880Z,87.47
2019-01-25T06:41:19.038Z,95.80
2019-01-25T06:42:23.049Z,88.55
2019-01-25T06:43:27.064Z,94.05
2019-01-25T06:44:30.994Z,91.60
2019-01-25T06:45:35.259Z,88.58
2019-01-25T06:46:39.192Z,92.88
2019-01-25T06:47:43.297Z,87.08
2019-01-25T06:48:47.394Z,84.85
2019-01-25T06:49:51.715Z,84.97
2019-01-25T06:50:55.735Z,85.30
2019-01-25T06:52:00.026Z,79.07
2019-01-25T06:53:06.088Z,89.77
2019-01-25T06:54:10.380Z,84.85
2019-01-25T06:55:14.947Z,87.02
2019-01-25T06:56:18.989Z,83.92
2019-01-25T06:57:42.087Z,86.63
2019-01-25T06:58:52.343Z,86.32
2019-01-25T06:59:56.297Z,93.15
2019-01-25T07:01:22.328Z,84.32
2019-01-25T07:02:36.455Z,80.83
2019-01-25T07:03:40.484Z,89.80
2019-01-25T07:04:44.500Z,91.63
2019-01-25T07:05:48.439Z,84.32
2019-01-25T07:06:52.901Z,95.03
2019-01-25T07:07:56.840Z,89.22
2019-01-25T07:09:00.785Z,88.47
2019-01-25T07:10:07.457Z,85.40
2019-01-25T07:11:11.471Z,87.75
2019-01-25T07:12:15.482Z,83.33
2019-01-25T07:13:19.737Z,87.10
2019-01-25T07:14:23.784Z,86.28
2019-01-25T07:15:27.868Z,84.52
2019-01-25T07:16:31.912Z,89.45
2019-01-25T07:17:36.211Z,82.80
2019-01-25T07:18:40.229Z,89.97
2019-01-25T07:19:44.177Z,82.60
2019-01-25T07:20:48.185Z,86.47
2019-01-25T07:21:52.175Z,86.05
2019-01-25T07:22:56.419Z,81.17
2019-01-25T07:24:00.474Z,79.22
2019-01-25T07:25:05.755Z,85.50
2019-01-25T07:26:09.780Z,83.95
2019-01-25T07:27:14.035Z,97.90
2019-01-25T07:28:18.058Z,88.67
2019-01-25T07:29:22.054Z,81.65
2019-01-25T07:30:26.104Z,87.30
2019-01-25T07:31:30.264Z,82.95
2019-01-25T07:32:34.335Z,85.28
2019-01-25T07:33:38.413Z,88.15
2019-01-25T07:34:42.375Z,87.33
2019-01-25T07:35:46.366Z,84.90
2019-01-25T07:36:52.024Z,86.65
2019-01-25T07:37:56.138Z,80.20
2019-01-25T07:39:00.469Z,91.72
2019-01-25T07:40:05.026Z,89.97
2019-01-25T07:41:09.058Z,82.02
2019-01-25T07:42:13.393Z,85.35
2019-01-25T07:43:17.802Z,81.15
2019-01-25T07:44:21.837Z,83.12
2019-01-25T07:45:25.853Z,90.25
2019-01-25T07:46:29.860Z,85.12
2019-01-25T07:47:33.877Z,85.12
2019-01-25T07:48:38.033Z,100.72
2019-01-25T07:49:42.019Z,94.58
2019-01-25T07:50:46.465Z,94.00
2019-01-25T07:51:50.465Z,95.20
2019-01-25T07:52:54.461Z,84.32
2019-01-25T07:53:58.505Z,84.40
2019-01-25T07:55:02.727Z,82.80
2019-01-25T07:56:06.944Z,87.65
2019-01-25T07:57:10.954Z,86.35
2019-01-25T07:58:15.281Z,84.77
2019-01-25T07:59:19.208Z,85.92
2019-01-25T08:00:23.265Z,103.15
2019-01-25T08:01:27.290Z,104.05
2019-01-25T08:02:31.277Z,112.12
2019-01-25T08:03:35.565Z,96.28
2019-01-25T08:04:39.545Z,102.27
2019-01-25T08:05:43.555Z,104.07
2019-01-25T08:06:47.581Z,98.95
2019-01-25T08:07:51.799Z,90.12
2019-01-25T08:08:55.801Z,96.35
2019-01-25T08:10:00.584Z,104.75
2019-01-25T08:11:04.795Z,97.90
2019-01-25T08:12:08.923Z,106.75
2019-01-25T08:13:12.930Z,99.10
2019-01-25T08:14:17.025Z,104.12
2019-01-25T08:15:22.753Z,144.32
2019-01-25T08:16:27.053Z,118.53
2019-01-25T08:17:31.349Z,116.05
2019-01-25T08:18:35.368Z,104.78
2019-01-25T08:19:39.789Z,108.50
2019-01-25T08:20:44.203Z,91.28
2019-01-25T08:21:48.583Z,92.40
2019-01-25T08:22:52.614Z,92.90
2019-01-25T08:23:56.854Z,93.17
2019-01-25T08:25:01.156Z,91.22
2019-01-25T08:26:05.203Z,90.47
2019-01-25T08:27:09.233Z,99.90
2019-01-25T08:28:13.268Z,94.92
2019-01-25T08:29:17.295Z,94.75
2019-01-25T08:30:21.405Z,92.62
2019-01-25T08:31:25.374Z,92.33
2019-01-25T08:32:29.378Z,84.20
2019-01-25T08:33:33.368Z,100.02
2019-01-25T08:34:37.389Z,88.03
2019-01-25T08:35:41.404Z,78.28
2019-01-25T08:36:45.570Z,86.85
2019-01-25T08:37:49.573Z,84.55
2019-01-25T08:38:53.995Z,93.03
2019-01-25T08:39:57.997Z,87.50
2019-01-25T08:41:02.033Z,85.20
2019-01-25T08:42:06.024Z,82.37
2019-01-25T08:43:10.205Z,87.25
2019-01-25T08:44:14.454Z,82.50
2019-01-25T08:45:18.794Z,80.12
2019-01-25T08:46:22.799Z,94.37
2019-01-25T08:47:26.830Z,102.47
2019-01-25T08:48:31.061Z,87.42
2019-01-25T08:49:35.297Z,92.08
2019-01-25T08:50:39.334Z,90.10
2019-01-25T08:51:43.307Z,99.05
2019-01-25T08:52:47.334Z,91.95
2019-01-25T08:53:51.373Z,89.77
2019-01-25T08:54:55.677Z,92.35
2019-01-25T08:55:59.658Z,92.30
2019-01-25T08:57:03.668Z,91.12
2019-01-25T08:58:07.682Z,81.12
2019-01-25T08:59:11.981Z,81.10
2019-01-25T09:00:20.634Z,85.32
2019-01-25T09:01:25.026Z,85.22
2019-01-25T09:02:29.038Z,79.17
2019-01-25T09:03:33.046Z,83.27
2019-01-25T09:04:37.334Z,84.55
2019-01-25T09:05:41.354Z,81.97
2019-01-25T09:06:45.378Z,80.80
2019-01-25T09:07:49.514Z,87.53
2019-01-25T09:08:53.747Z,80.83
2019-01-25T09:09:57.782Z,91.32
2019-01-25T09:11:01.775Z,82.27
2019-01-25T09:12:05.828Z,83.58
2019-01-25T09:13:09.841Z,81.75
2019-01-25T09:14:13.856Z,76.90
2019-01-25T09:15:20.648Z,79.90
2019-01-25T09:16:24.992Z,79.58
2019-01-25T09:17:29.647Z,76.42
2019-01-25T09:18:33.956Z,80.17
2019-01-25T09:19:37.903Z,72.72
2019-01-25T09:20:41.979Z,78.52
2019-01-25T09:21:46.023Z,75.55
2019-01-25T09:22:50.034Z,79.25
2019-01-25T09:23:54.046Z,76.33
2019-01-25T09:24:58.064Z,74.05
2019-01-25T09:26:02.101Z,71.80
2019-01-25T09:27:06.307Z,69.82
2019-01-25T09:28:10.571Z,73.95
2019-01-25T09:29:14.984Z,73.75
2019-01-25T09:30:21.087Z,352.27
2019-01-25T09:31:25.099Z,146.82
2019-01-25T09:32:29.124Z,91.53
2019-01-25T09:33:33.491Z,98.60
2019-01-25T09:34:37.507Z,108.78
2019-01-25T09:35:41.859Z,118.62
2019-01-25T09:36:45.875Z,92.12
2019-01-25T09:37:51.700Z,78.50
2019-01-25T09:38:55.713Z,74.20
2019-01-25T09:39:59.662Z,76.20
2019-01-25T09:41:04.131Z,72.97
2019-01-25T09:42:08.138Z,69.07
2019-01-25T09:43:12.167Z,73.57
2019-01-25T09:44:16.176Z,81.12
2019-01-25T09:45:20.755Z,72.82
2019-01-25T09:46:24.767Z,81.55
2019-01-25T09:47:28.730Z,81.17
2019-01-25T09:48:32.762Z,78.33
2019-01-25T09:49:36.818Z,109.50
2019-01-25T09:50:40.883Z,86.72
2019-01-25T09:51:45.148Z,121.50
2019-01-25T09:52:49.197Z,101.15
2019-01-25T09:53:53.206Z,88.15
2019-01-25T09:54:57.562Z,79.92
2019-01-25T09:56:01.580Z,77.78
2019-01-25T09:57:06.195Z,76.15
2019-01-25T09:58:12.460Z,79.77
2019-01-25T09:59:16.472Z,78.60
2019-01-25T10:00:32.384Z,77.32
2019-01-25T10:01:36.383Z,79.22
2019-01-25T10:02:40.243Z,73.07
2019-01-25T10:03:44.501Z,74.37
2019-01-25T10:04:48.509Z,81.60
2019-01-25T10:05:52.521Z,77.35
2019-01-25T10:06:56.531Z,77.45
2019-01-25T10:08:00.536Z,84.03
2019-01-25T10:09:07.671Z,86.70
2019-01-25T10:10:12.144Z,85.67
2019-01-25T10:11:16.148Z,78.90
2019-01-25T10:12:20.074Z,78.60
2019-01-25T10:13:24.020Z,82.53
2019-01-25T10:14:28.261Z,80.80
2019-01-25T10:15:32.276Z,87.90
2019-01-25T10:16:36.401Z,79.90
2019-01-25T10:17:40.401Z,75.08
2019-01-25T10:18:44.590Z,84.72
2019-01-25T10:19:48.596Z,78.57
2019-01-25T10:20:52.694Z,79.62
2019-01-25T10:21:56.626Z,82.42
2019-01-25T10:23:00.630Z,83.80
2019-01-25T10:24:06.423Z,81.50
2019-01-25T10:25:10.690Z,86.25
2019-01-25T10:26:14.630Z,78.22
2019-01-25T10:27:18.558Z,78.87
2019-01-25T10:28:22.583Z,82.47
2019-01-25T10:29:26.614Z,85.77
2019-01-25T10:30:30.626Z,85.83
2019-01-25T10:31:34.646Z,85.45
2019-01-25T10:32:38.653Z,84.62
2019-01-25T10:33:42.685Z,85.87
2019-01-25T10:34:46.995Z,78.07
2019-01-25T10:35:51.431Z,81.40
2019-01-25T10:36:55.511Z,81.15
2019-01-25T10:37:59.519Z,81.72
2019-01-25T10:39:05.353Z,86.22
2019-01-25T10:40:12.690Z,81.17
2019-01-25T10:41:16.701Z,90.90
2019-01-25T10:42:20.765Z,83.30
2019-01-25T10:43:24.812Z,85.05
2019-01-25T10:44:28.844Z,87.78
2019-01-25T10:45:34.911Z,84.65
2019-01-25T10:46:38.940Z,85.67
2019-01-25T10:47:42.939Z,87.78
2019-01-25T10:48:46.987Z,89.28
2019-01-25T10:49:50.995Z,87.70
2019-01-25T10:50:55.013Z,78.22
2019-01-25T10:51:59.024Z,87.57
2019-01-25T10:53:03.034Z,92.50
2019-01-25T10:54:08.541Z,90.22
2019-01-25T10:55:13.172Z,89.22
2019-01-25T10:56:17.116Z,85.53
2019-01-25T10:57:21.140Z,85.57
2019-01-25T10:58:25.156Z,87.02
2019-01-25T10:59:29.190Z,85.25
2019-01-25T11:00:33.779Z,86.53
2019-01-25T11:01:37.811Z,89.00
2019-01-25T11:02:41.837Z,87.55
2019-01-25T11:03:46.755Z,86.75
2019-01-25T11:04:50.799Z,87.72
2019-01-25T11:05:54.816Z,87.02
2019-01-25T11:06:58.782Z,86.80
2019-01-25T11:08:02.807Z,91.20
2019-01-25T11:09:09.175Z,85.62
2019-01-25T11:10:13.398Z,86.08
2019-01-25T11:11:17.407Z,94.47
2019-01-25T11:12:21.424Z,98.33
2019-01-25T11:13:25.687Z,84.03
2019-01-25T11:14:29.698Z,85.42
2019-01-25T11:15:34.190Z,88.12
2019-01-25T11:16:38.539Z,89.67
2019-01-25T11:17:42.559Z,86.05
2019-01-25T11:18:47.130Z,96.82
2019-01-25T11:19:51.302Z,93.45
2019-01-25T11:20:55.313Z,91.02
2019-01-25T11:21:59.325Z,88.50
2019-01-25T11:23:03.268Z,92.60
2019-01-25T11:24:08.001Z,95.75
2019-01-25T11:25:15.389Z,96.82
2019-01-25T11:26:19.396Z,95.92
2019-01-25T11:27:23.416Z,96.15
2019-01-25T11:28:27.424Z,89.72
2019-01-25T11:29:31.676Z,91.00
2019-01-25T11:30:36.145Z,92.00
2019-01-25T11:31:40.003Z,87.97
2019-01-25T11:32:44.016Z,93.35
2019-01-25T11:33:47.875Z,94.28
2019-01-25T11:34:51.961Z,97.45
2019-01-25T11:35:55.979Z,93.25
2019-01-25T11:37:00.232Z,92.27
2019-01-25T11:38:04.244Z,117.53
2019-01-25T11:39:10.170Z,100.47
2019-01-25T11:40:25.687Z,100.10
2019-01-25T11:41:29.704Z,107.20
2019-01-25T11:42:33.716Z,101.80
2019-01-25T11:43:38.042Z,97.72
2019-01-25T11:44:42.103Z,105.03
2019-01-25T11:45:46.076Z,94.00
2019-01-25T11:46:50.084Z,89.55
2019-01-25T11:47:54.530Z,97.57
2019-01-25T11:48:58.548Z,85.10
2019-01-25T11:50:02.557Z,92.10
2019-01-25T11:51:06.831Z,85.70
2019-01-25T11:52:10.842Z,88.20
2019-01-25T11:53:15.097Z,92.67
2019-01-25T11:54:19.112Z,90.75
2019-01-25T11:55:23.361Z,91.47
2019-01-25T11:56:27.303Z,90.03
2019-01-25T11:57:31.473Z,94.75
2019-01-25T11:58:35.485Z,88.92
2019-01-25T11:59:39.792Z,83.50
2019-01-25T12:00:45.797Z,94.65
2019-01-25T12:01:49.929Z,89.85
2019-01-25T12:02:54.291Z,93.85
2019-01-25T12:03:58.321Z,89.80
2019-01-25T12:05:02.582Z,92.50
2019-01-25T12:06:07.051Z,86.50
2019-01-25T12:07:11.438Z,100.47
2019-01-25T12:08:16.240Z,96.90
2019-01-25T12:09:20.353Z,93.78
2019-01-25T12:10:26.524Z,94.50
2019-01-25T12:11:30.845Z,87.17
2019-01-25T12:12:34.711Z,89.32
2019-01-25T12:13:38.962Z,91.70
2019-01-25T12:14:43.160Z,91.00
2019-01-25T12:15:47.223Z,89.70
2019-01-25T12:16:51.304Z,82.20
2019-01-25T12:17:55.691Z,85.00
2019-01-25T12:18:59.781Z,89.40
2019-01-25T12:20:05.161Z,87.88
2019-01-25T12:21:09.589Z,85.20
2019-01-25T12:22:13.627Z,88.42
2019-01-25T12:23:18.025Z,85.60
2019-01-25T12:24:22.039Z,84.92
2019-01-25T12:25:26.136Z,80.05
2019-01-25T12:26:30.507Z,86.97
2019-01-25T12:27:34.907Z,84.32
2019-01-25T12:28:38.846Z,84.58
2019-01-25T12:29:42.891Z,83.07
2019-01-25T12:30:46.911Z,84.60
2019-01-25T12:31:50.949Z,87.80
2019-01-25T12:32:55.017Z,86.72
2019-01-25T12:33:59.037Z,95.55
2019-01-25T12:35:07.218Z,90.67
2019-01-25T12:36:09.066Z,86.47
2019-01-25T12:37:12.946Z,91.80
2019-01-25T12:38:16.998Z,87.97
2019-01-25T12:39:21.028Z,88.10
2019-01-25T12:40:25.045Z,87.05
2019-01-25T12:41:29.077Z,85.55
2019-01-25T12:42:33.106Z,87.75
2019-01-25T12:43:37.152Z,82.30
2019-01-25T12:44:41.220Z,86.70
2019-01-25T12:45:50.094Z,86.65
2019-01-25T12:46:51.326Z,90.97
2019-01-25T12:47:55.616Z,89.67
2019-01-25T12:48:59.544Z,87.57
2019-01-25T12:50:03.795Z,88.27
2019-01-25T12:51:26.917Z,91.08
2019-01-25T12:52:31.644Z,86.63
2019-01-25T12:53:35.660Z,83.92
2019-01-25T12:54:39.961Z,90.55
2019-01-25T12:55:44.004Z,85.05
2019-01-25T12:56:48.313Z,80.57
2019-01-25T12:57:53.182Z,82.08
2019-01-25T12:58:57.597Z,88.50
2019-01-25T13:00:02.002Z,98.35
2019-01-25T13:01:06.824Z,91.87
2019-01-25T13:02:11.451Z,93.35
2019-01-25T13:03:15.481Z,86.47
2019-01-25T13:04:19.797Z,96.47
2019-01-25T13:05:24.282Z,97.17
2019-01-25T13:06:28.532Z,99.30
2019-01-25T13:07:32.557Z,93.22
2019-01-25T13:08:36.770Z,86.78
2019-01-25T13:09:40.787Z,90.45
2019-01-25T13:10:44.803Z,91.67
2019-01-25T13:11:49.116Z,87.25
2019-01-25T13:12:53.430Z,80.72
2019-01-25T13:13:57.672Z,98.30
2019-01-25T13:15:04.119Z,89.40
2019-01-25T13:16:09.197Z,91.70
2019-01-25T13:17:13.441Z,96.53
2019-01-25T13:18:18.615Z,90.12
2019-01-25T13:19:22.966Z,91.45
2019-01-25T13:20:27.809Z,91.45
2019-01-25T13:21:31.757Z,86.80
2019-01-25T13:22:36.535Z,92.72
2019-01-25T13:23:42.323Z,97.40
2019-01-25T13:24:47.153Z,92.55
2019-01-25T13:25:52.301Z,105.90
2019-01-25T13:26:56.702Z,96.28
2019-01-25T13:28:02.361Z,95.72
2019-01-25T13:29:06.392Z,81.90
2019-01-25T13:30:14.545Z,90.57
2019-01-25T13:31:19.072Z,85.70
2019-01-25T13:32:25.091Z,84.35
2019-01-25T13:33:29.790Z,86.47
2019-01-25T13:34:34.674Z,87.02
2019-01-25T13:35:39.952Z,87.55
2019-01-25T13:36:44.222Z,87.85
2019-01-25T13:37:49.345Z,85.92
2019-01-25T13:38:53.430Z,76.05
2019-01-25T13:39:57.309Z,78.17
2019-01-25T13:41:01.652Z,106.47